createdAt,value
2022-09-10T00:02:45.233Z,101078.31
2022-09-10T00:05:49.063Z,101066.91
2022-09-10T00:08:52.030Z,101074.06
2022-09-10T00:11:55.088Z,101077.66
2022-09-10T00:14:58.006Z,101075.00
2022-09-10T00:18:03.113Z,101075.97
2022-09-10T00:21:07.738Z,101084.88
2022-09-10T00:24:11.011Z,101073.34
2022-09-10T00:27:15.092Z,101065.28
2022-09-10T00:30:18.235Z,101068.00
2022-09-10T00:33:23.878Z,101074.22
2022-09-10T00:36:29.130Z,101061.88
2022-09-10T00:39:32.084Z,101072.56
2022-09-10T00:42:35.691Z,101072.63
2022-09-10T00:45:38.735Z,101064.63
2022-09-10T00:48:43.078Z,101065.50
2022-09-10T00:51:47.695Z,101067.31
2022-09-10T00:54:51.215Z,101073.44
2022-09-10T00:57:57.573Z,101076.19
2022-09-10T01:01:03.517Z,101077.97
2022-09-10T01:04:10.729Z,101085.03
2022-09-10T01:07:15.626Z,101069.00
2022-09-10T01:10:22.355Z,101073.34
2022-09-10T01:13:38.529Z,101080.25
2022-09-10T01:16:48.774Z,101073.03
2022-09-10T01:20:43.668Z,101075.97
2022-09-10T01:24:21.871Z,101075.16
2022-09-10T01:27:43.590Z,101073.44
2022-09-10T01:30:51.509Z,101077.84
2022-09-10T01:34:02.189Z,101080.50
2022-09-10T01:37:09.409Z,101070.75
2022-09-10T01:40:13.311Z,101070.75
2022-09-10T01:43:18.285Z,101070.75
2022-09-10T01:46:39.301Z,101072.34
2022-09-10T01:49:54.633Z,101065.28
2022-09-10T01:53:15.433Z,101062.66
2022-09-10T01:56:35.574Z,101055.44
2022-09-10T01:59:51.635Z,101061.66
2022-09-10T02:03:02.120Z,101053.88
2022-09-10T02:06:13.173Z,101054.84
2022-09-10T02:09:19.876Z,101039.75
2022-09-10T02:12:24.745Z,101049.56
2022-09-10T02:15:51.351Z,101040.75
2022-09-10T02:18:58.280Z,101056.78
2022-09-10T02:22:01.431Z,101051.44
2022-09-10T02:25:04.889Z,101067.44
2022-09-10T02:28:08.899Z,101065.72
2022-09-10T02:31:13.463Z,101073.72
2022-09-10T02:34:16.950Z,101073.66
2022-09-10T02:37:22.837Z,101074.66
2022-09-10T02:40:26.102Z,101071.06
2022-09-10T02:43:30.129Z,101075.44
2022-09-10T02:46:38.309Z,101074.53
2022-09-10T02:49:41.358Z,101075.44
2022-09-10T02:52:45.683Z,101080.84
2022-09-10T02:55:49.447Z,101078.19
2022-09-10T02:58:52.476Z,101083.44
2022-09-10T03:01:57.094Z,101083.53
2022-09-10T03:05:00.479Z,101081.72
2022-09-10T03:08:03.978Z,101080.84
2022-09-10T03:11:07.126Z,101080.06
2022-09-10T03:14:12.218Z,101085.50
2022-09-10T03:17:16.959Z,101079.97
2022-09-10T03:20:21.191Z,101081.72
2022-09-10T03:23:24.106Z,101079.97
2022-09-10T03:26:28.265Z,101074.75
2022-09-10T03:29:31.633Z,101084.47
2022-09-10T03:32:38.213Z,101081.88
2022-09-10T03:35:43.272Z,101083.59
2022-09-10T03:38:47.478Z,101078.28
2022-09-10T03:41:50.522Z,101077.31
2022-09-10T03:44:53.558Z,101071.19
2022-09-10T03:47:57.946Z,101077.50
2022-09-10T03:51:00.846Z,101073.06
2022-09-10T03:54:06.135Z,101073.88
2022-09-10T03:57:09.674Z,101076.47
2022-09-10T04:00:13.761Z,101074.66
2022-09-10T04:03:22.262Z,101079.06
2022-09-10T04:06:25.201Z,101072.94
2022-09-10T04:09:28.093Z,101078.28
2022-09-10T04:12:31.138Z,101076.53
2022-09-10T04:15:34.873Z,101069.47
2022-09-10T04:18:40.708Z,101074.81
2022-09-10T04:21:43.842Z,101072.22
2022-09-10T04:24:47.522Z,101074.88
2022-09-10T04:27:50.901Z,101071.38
2022-09-10T04:30:53.965Z,101076.69
2022-09-10T04:34:01.404Z,101071.38
2022-09-10T04:37:06.194Z,101082.03
2022-09-10T04:40:11.578Z,101086.50
2022-09-10T04:43:15.214Z,101091.84
2022-09-10T04:46:19.083Z,101092.75
2022-09-10T04:49:27.038Z,101090.16
2022-09-10T04:52:30.003Z,101082.16
2022-09-10T04:55:33.459Z,101085.78
2022-09-10T04:58:39.166Z,101087.50
2022-09-10T05:01:42.923Z,101077.84
2022-09-10T05:04:47.632Z,101077.00
2022-09-10T05:07:53.078Z,101080.59
2022-09-10T05:10:56.347Z,101081.47
2022-09-10T05:13:59.471Z,101080.59
2022-09-10T05:17:05.634Z,101079.72
2022-09-10T05:20:11.804Z,101081.47
2022-09-10T05:23:23.179Z,101080.50
2022-09-10T05:26:28.755Z,101087.66
2022-09-10T05:29:34.131Z,101085.84
2022-09-10T05:32:37.090Z,101086.78
2022-09-10T05:35:42.014Z,101084.13
2022-09-10T05:38:46.456Z,101085.91
2022-09-10T05:41:51.350Z,101088.59
2022-09-10T05:44:54.251Z,101098.34
2022-09-10T05:47:57.221Z,101094.84
2022-09-10T05:51:03.127Z,101100.19
2022-09-10T05:54:06.430Z,101095.78
2022-09-10T05:57:09.476Z,101097.50
2022-09-10T06:00:15.462Z,101100.19
2022-09-10T06:03:23.834Z,101098.47
2022-09-10T06:06:32.049Z,101101.13
2022-09-10T06:09:41.535Z,101104.66
2022-09-10T06:13:13.408Z,101097.50
2022-09-10T06:16:17.763Z,101100.19
2022-09-10T06:19:21.247Z,101103.72
2022-09-10T06:22:28.027Z,101110.84
2022-09-10T06:25:31.165Z,101107.34
2022-09-10T06:28:35.195Z,101118.06
2022-09-10T06:31:38.217Z,101106.56
2022-09-10T06:34:42.342Z,101113.69
2022-09-10T06:37:47.399Z,101121.69
2022-09-10T06:40:54.565Z,101121.69
2022-09-10T06:43:57.867Z,101119.94
2022-09-10T06:47:50.963Z,101120.88
2022-09-10T06:50:31.246Z,101117.25
2022-09-10T06:53:37.016Z,101123.47
2022-09-10T06:56:42.860Z,101124.34
2022-09-10T06:59:46.221Z,101121.69
2022-09-10T07:02:50.624Z,101118.06
2022-09-10T07:05:55.686Z,101124.34
2022-09-10T07:09:05.298Z,101127.00
2022-09-10T07:12:16.638Z,101121.69
2022-09-10T07:15:20.455Z,101119.94
2022-09-10T07:18:23.478Z,101124.34
2022-09-10T07:21:28.791Z,101123.56
2022-09-10T07:24:37.462Z,101118.31
2022-09-10T07:27:47.523Z,101120.97
2022-09-10T07:30:50.498Z,101114.75
2022-09-10T07:33:53.403Z,101126.31
2022-09-10T07:36:56.822Z,101121.81
2022-09-10T07:40:03.552Z,101128.00
2022-09-10T07:43:08.250Z,101121.81
2022-09-10T07:46:13.998Z,101128.09
2022-09-10T07:49:17.547Z,101117.44
2022-09-10T07:52:23.962Z,101116.69
2022-09-10T07:55:32.146Z,101118.50
2022-09-10T07:58:38.300Z,101120.38
2022-09-10T08:01:44.812Z,101121.22
2022-09-10T08:04:50.584Z,101128.38
2022-09-10T08:07:55.103Z,101123.97
2022-09-10T08:11:11.809Z,101127.59
2022-09-10T08:14:16.762Z,101126.81
2022-09-10T08:17:25.365Z,101131.28
2022-09-10T08:20:28.524Z,101132.13
2022-09-10T08:23:32.779Z,101128.56
2022-09-10T08:26:37.719Z,101126.81
2022-09-10T08:29:42.740Z,101126.72
2022-09-10T08:32:47.030Z,101130.31
2022-09-10T08:35:54.214Z,101122.25
2022-09-10T08:39:02.182Z,101116.84
2022-09-10T08:42:17.575Z,101122.09
2022-09-10T08:45:26.738Z,101127.34
2022-09-10T08:48:35.797Z,101121.09
2022-09-10T08:51:45.086Z,101114.75
2022-09-10T08:54:59.377Z,101116.47
2022-09-10T08:58:13.843Z,101120.09
2022-09-10T09:01:30.403Z,101113.00
2022-09-10T09:04:41.161Z,101113.00
2022-09-10T09:07:44.964Z,101115.69
2022-09-10T09:10:50.574Z,101112.09
2022-09-10T09:14:11.622Z,101107.63
2022-09-10T09:17:38.061Z,101109.34
2022-09-10T09:20:46.579Z,101113.75
2022-09-10T09:27:31.457Z,101111.66
2022-09-10T09:30:42.120Z,101113.38
2022-09-10T09:33:46.507Z,101114.16
2022-09-10T09:36:52.754Z,101116.75
2022-09-10T09:40:08.768Z,101113.16
2022-09-10T09:43:23.893Z,101113.16
2022-09-10T09:46:28.308Z,101114.03
2022-09-10T09:49:35.442Z,101114.88
2022-09-10T09:52:38.939Z,101116.53
2022-09-10T09:55:47.111Z,101113.88
2022-09-10T09:58:52.062Z,101113.88
2022-09-10T10:01:58.761Z,101113.88
2022-09-10T10:05:07.914Z,101113.88
2022-09-10T10:08:30.144Z,101111.22
2022-09-10T10:11:46.965Z,101107.63
2022-09-10T10:14:51.393Z,101108.63
2022-09-10T10:17:55.782Z,101110.28
2022-09-10T10:21:19.836Z,101106.81
2022-09-10T10:24:32.745Z,101106.81
2022-09-10T10:27:37.826Z,101103.16
2022-09-10T10:30:41.940Z,101109.41
2022-09-10T10:33:55.510Z,101106.66
2022-09-10T10:37:08.688Z,101098.66
2022-09-10T10:40:20.225Z,101101.31
2022-09-10T10:43:36.402Z,101101.31
2022-09-10T10:46:48.649Z,101096.94
2022-09-10T10:50:04.978Z,101099.63
2022-09-10T10:53:36.095Z,101095.19
2022-09-10T10:56:42.658Z,101091.66
2022-09-10T10:59:55.570Z,101089.88
2022-09-10T11:03:05.694Z,101097.00
2022-09-10T11:06:14.836Z,101098.75
2022-09-10T11:09:25.538Z,101093.41
2022-09-10T11:12:33.271Z,101097.81
2022-09-10T11:15:43.185Z,101091.63
2022-09-10T11:18:50.278Z,101096.88
2022-09-10T11:21:59.289Z,101088.78
2022-09-10T11:25:08.448Z,101091.44
2022-09-10T11:28:16.313Z,101089.56
2022-09-10T11:31:30.426Z,101077.97
2022-09-10T11:34:41.261Z,101082.31
2022-09-10T11:37:53.525Z,101083.19
2022-09-10T11:41:07.661Z,101081.44
2022-09-10T11:44:27.897Z,101076.09
2022-09-10T11:47:36.590Z,101071.69
2022-09-10T11:50:48.322Z,101077.88
2022-09-10T11:53:54.354Z,101064.56
2022-09-10T11:57:01.791Z,101068.00
2022-09-10T12:00:11.762Z,101066.28
2022-09-10T12:03:42.065Z,101059.22
2022-09-10T12:06:53.750Z,101056.50
2022-09-10T12:10:14.139Z,101066.13
2022-09-10T12:13:17.998Z,101059.00
2022-09-10T12:16:29.488Z,101058.13
2022-09-10T12:19:37.280Z,101061.66
2022-09-10T12:22:42.598Z,101060.75
2022-09-10T12:25:57.846Z,101055.41
2022-09-10T12:29:06.709Z,101045.66
2022-09-10T12:32:36.949Z,101055.41
2022-09-10T12:35:46.210Z,101058.13
2022-09-10T12:38:55.213Z,101058.13
2022-09-10T12:42:04.025Z,101061.66
2022-09-10T12:45:09.838Z,101050.13
2022-09-10T12:48:14.211Z,101047.53
2022-09-10T12:51:29.743Z,101049.28
2022-09-10T12:54:55.716Z,101049.28
2022-09-10T12:58:07.260Z,101051.16
2022-09-10T13:01:20.337Z,101040.50
2022-09-10T13:04:29.502Z,101051.00
2022-09-10T13:07:40.223Z,101044.66
2022-09-10T13:10:45.824Z,101043.63
2022-09-10T13:14:00.885Z,101041.75
2022-09-10T13:17:04.383Z,101032.09
2022-09-10T13:20:15.766Z,101025.75
2022-09-10T13:23:23.532Z,101012.41
2022-09-10T13:26:49.165Z,101014.13
2022-09-10T13:30:10.777Z,101012.31
2022-09-10T13:33:22.150Z,101006.06
2022-09-10T13:36:33.089Z,101016.66
2022-09-10T13:40:00.011Z,101016.66
2022-09-10T13:43:21.377Z,101017.50
2022-09-10T13:46:35.221Z,101012.19
2022-09-10T13:49:46.613Z,101004.19
2022-09-10T13:52:54.946Z,101009.44
2022-09-10T13:56:01.066Z,101014.75
2022-09-10T13:59:06.317Z,101008.56
2022-09-10T14:02:10.916Z,101000.53
2022-09-10T14:05:30.885Z,101007.69
2022-09-10T14:08:38.504Z,101013.00
2022-09-10T14:11:44.095Z,101007.69
2022-09-10T14:14:51.049Z,101002.28
2022-09-10T14:17:59.621Z,101013.81
2022-09-10T14:21:03.432Z,101006.66
2022-09-10T14:24:06.941Z,101005.78
2022-09-10T14:27:18.466Z,101003.06
2022-09-10T14:30:26.679Z,101005.66
2022-09-10T14:33:34.416Z,100997.66
2022-09-10T14:36:37.369Z,100989.66
2022-09-10T14:39:45.371Z,100992.31
2022-09-10T14:42:49.747Z,100986.97
2022-09-10T14:45:52.841Z,100994.13
2022-09-10T14:49:11.593Z,100994.06
2022-09-10T14:52:15.049Z,100988.72
2022-09-10T14:55:18.190Z,100981.56
2022-09-10T14:58:21.138Z,100980.72
2022-09-10T15:01:24.286Z,100998.44
2022-09-10T15:04:30.755Z,100992.19
2022-09-10T15:07:33.666Z,100994.84
2022-09-10T15:10:36.679Z,100993.88
2022-09-10T15:13:43.458Z,100995.69
2022-09-10T15:16:46.555Z,100994.84
2022-09-10T15:19:52.171Z,100996.56
2022-09-10T15:22:55.063Z,100992.19
2022-09-10T15:25:59.849Z,101001.88
2022-09-10T15:29:02.772Z,101004.66
2022-09-10T15:32:05.950Z,101004.66
2022-09-10T15:35:10.699Z,101010.91
2022-09-10T15:38:14.150Z,101014.44
2022-09-10T15:41:17.017Z,101024.25
2022-09-10T15:44:20.023Z,101040.25
2022-09-10T15:47:23.368Z,101035.78
2022-09-10T15:50:27.756Z,101056.22
2022-09-10T15:53:32.813Z,101082.81
2022-09-10T15:56:36.672Z,101130.84
2022-09-10T15:59:40.565Z,101130.16
2022-09-10T16:02:47.162Z,101127.88
2022-09-10T16:05:51.493Z,101112.88
2022-09-10T16:08:57.125Z,101137.81
2022-09-10T16:12:00.020Z,101099.28
2022-09-10T16:15:03.033Z,101094.69
2022-09-10T16:18:06.577Z,101098.16
2022-09-10T16:21:12.870Z,101095.19
2022-09-10T16:24:15.863Z,101105.47
2022-09-10T16:27:19.039Z,101107.97
2022-09-10T16:30:22.776Z,101109.44
2022-09-10T16:33:26.174Z,101105.69
2022-09-10T16:36:33.006Z,101112.59
2022-09-10T16:39:36.114Z,101101.78
2022-09-10T16:42:39.110Z,101097.25
2022-09-10T16:45:51.126Z,101091.75
2022-09-10T16:48:55.787Z,101097.81
2022-09-10T16:52:00.123Z,101095.06
2022-09-10T16:55:04.482Z,101086.09
2022-09-10T16:58:07.519Z,101094.06
2022-09-10T17:01:10.947Z,101088.66
2022-09-10T17:04:19.249Z,101090.34
2022-09-10T17:07:24.313Z,101084.97
2022-09-10T17:10:27.304Z,101081.44
2022-09-10T17:13:30.502Z,101080.50
2022-09-10T17:16:36.686Z,101083.19
2022-09-10T17:19:39.583Z,101084.00
2022-09-10T17:22:43.888Z,101090.22
2022-09-10T17:25:47.901Z,101091.97
2022-09-10T17:28:55.644Z,101089.28
2022-09-10T17:31:59.059Z,101097.31
2022-09-10T17:35:01.969Z,101107.88
2022-09-10T17:38:08.352Z,101110.47
2022-09-10T17:41:14.414Z,101113.13
2022-09-10T17:44:17.739Z,101123.81
2022-09-10T17:47:20.842Z,101110.47
2022-09-10T17:50:23.718Z,101113.13
2022-09-10T17:53:28.087Z,101121.16
2022-09-10T17:56:31.118Z,101116.69
2022-09-10T17:59:35.049Z,101120.22
2022-09-10T18:02:38.107Z,101126.41
2022-09-10T18:05:42.241Z,101130.88
2022-09-10T18:08:46.667Z,101124.59
2022-09-10T18:11:49.645Z,101129.94
2022-09-10T18:14:52.577Z,101128.13
2022-09-10T18:17:55.971Z,101126.41
2022-09-10T18:21:00.377Z,101131.69
2022-09-10T18:24:07.602Z,101135.19
2022-09-10T18:27:10.492Z,101134.34
2022-09-10T18:30:14.107Z,101132.53
2022-09-10T18:33:18.446Z,101123.69
2022-09-10T18:36:21.789Z,101130.72
2022-09-10T18:39:28.149Z,101138.72
2022-09-10T18:42:31.151Z,101145.84
2022-09-10T18:45:34.025Z,101142.34
2022-09-10T18:48:36.950Z,101146.72
2022-09-10T18:51:42.194Z,101140.53
2022-09-10T18:54:46.837Z,101140.53
2022-09-10T18:57:49.797Z,101141.41
2022-09-10T19:00:56.646Z,101135.19
2022-09-10T19:04:03.108Z,101141.41
2022-09-10T19:07:06.689Z,101142.34
2022-09-10T19:10:11.315Z,101145.84
2022-09-10T19:13:14.343Z,101143.19
2022-09-10T19:16:18.089Z,101146.72
2022-09-10T19:19:23.393Z,101145.84
2022-09-10T19:22:26.426Z,101141.47
2022-09-10T19:25:30.954Z,101146.72
2022-09-10T19:28:34.630Z,101145.84
2022-09-10T19:31:37.642Z,101135.19
2022-09-10T19:34:40.674Z,101136.06
2022-09-10T19:37:43.710Z,101130.72
2022-09-10T19:40:48.030Z,101138.69
2022-09-10T19:43:52.391Z,101135.13
2022-09-10T19:46:55.286Z,101136.94
2022-09-10T19:49:59.182Z,101141.41
2022-09-10T19:53:02.421Z,101142.34
2022-09-10T19:56:09.347Z,101145.03
2022-09-10T19:59:12.851Z,101145.03
2022-09-10T20:02:15.909Z,101147.69
2022-09-10T20:05:18.982Z,101134.34
2022-09-10T20:08:22.081Z,101134.34
2022-09-10T20:11:29.907Z,101126.34
2022-09-10T20:14:32.938Z,101123.69
2022-09-10T20:17:36.019Z,101115.66
2022-09-10T20:20:39.028Z,101115.66
2022-09-10T20:23:43.986Z,101112.03
2022-09-10T20:26:49.062Z,101117.38
2022-09-10T20:29:52.105Z,101122.72
2022-09-10T20:32:55.170Z,101129.00
2022-09-10T20:35:58.070Z,101134.34
2022-09-10T20:39:01.460Z,101127.25
2022-09-10T20:42:06.645Z,101133.56
2022-09-10T20:45:10.125Z,101136.22
2022-09-10T20:48:13.221Z,101133.59
2022-09-10T20:51:17.746Z,101138.03
2022-09-10T20:54:20.800Z,101138.94
2022-09-10T20:57:25.247Z,101132.78
2022-09-10T21:00:28.173Z,101139.81
2022-09-10T21:03:31.980Z,101146.94
2022-09-10T21:06:36.592Z,101140.78
2022-09-10T21:09:39.611Z,101139.81
2022-09-10T21:12:43.903Z,101148.78
2022-09-10T21:15:46.854Z,101154.13
2022-09-10T21:18:54.622Z,101154.13
2022-09-10T21:21:58.312Z,101151.50
2022-09-10T21:25:01.249Z,101161.31
2022-09-10T21:28:05.699Z,101156.81
2022-09-10T21:31:10.206Z,101150.66
2022-09-10T21:34:14.306Z,101161.31
2022-09-10T21:37:18.238Z,101162.16
2022-09-10T21:40:21.225Z,101169.25
2022-09-10T21:43:25.643Z,101172.00
2022-09-10T21:46:29.437Z,101168.38
2022-09-10T21:49:32.518Z,101173.72
2022-09-10T21:52:35.443Z,101177.34
2022-09-10T21:55:38.885Z,101183.50
2022-09-10T21:58:45.710Z,101190.66
2022-09-10T22:01:49.557Z,101190.72
2022-09-10T22:04:52.529Z,101196.94
2022-09-10T22:07:55.485Z,101189.88
2022-09-10T22:11:00.549Z,101192.53
2022-09-10T22:14:07.603Z,101180.13
2022-09-10T22:17:10.515Z,101182.81
2022-09-10T22:20:13.413Z,101177.47
2022-09-10T22:23:16.274Z,101177.47
2022-09-10T22:26:20.922Z,101188.13
2022-09-10T22:29:25.254Z,101183.72
2022-09-10T22:32:28.281Z,101186.38
2022-09-10T22:35:31.257Z,101190.00
2022-09-10T22:38:34.242Z,101190.00
2022-09-10T22:41:38.178Z,101198.00
2022-09-10T22:44:42.606Z,101194.47
2022-09-10T22:47:45.822Z,101199.81
2022-09-10T22:50:48.771Z,101204.28
2022-09-10T22:53:53.450Z,101205.13
2022-09-10T22:56:59.362Z,101204.28
2022-09-10T23:00:04.338Z,101205.13
2022-09-10T23:03:07.225Z,101204.28
2022-09-10T23:06:12.077Z,101213.16
2022-09-10T23:09:16.462Z,101209.59
2022-09-10T23:12:22.549Z,101203.44
2022-09-10T23:15:26.938Z,101196.34
2022-09-10T23:18:29.834Z,101206.16
2022-09-10T23:21:34.790Z,101212.34
2022-09-10T23:24:37.718Z,101219.47
2022-09-10T23:27:40.662Z,101209.75
2022-09-10T23:30:45.621Z,101212.50
2022-09-10T23:33:54.436Z,101215.09
2022-09-10T23:36:57.347Z,101215.09
2022-09-10T23:40:00.337Z,101216.91
2022-09-10T23:43:03.264Z,101217.78
2022-09-10T23:46:08.890Z,101211.47
2022-09-10T23:49:12.625Z,101212.50
2022-09-10T23:52:15.887Z,101220.44
2022-09-10T23:55:19.591Z,101218.69
2022-09-10T23:58:23.111Z,101220.50
